International Virtual Aviation Organisation

Russian Federation and Kazakhstan MCD

 

Карточка аэропорта ULLI

Внимание!
Информация на этой странице в стадии наполнения.
Если вы не увидели какой-то информации, или заметили неточность - пожалуйста сообщите нам!
Спасибо!
Команда RU-STAFF
Название аэропортаПулково
Название аэропорта (англ.)Pulkovo
Превышение79 ft. (24.1 m.)
Координаты59°48.018', 30°15.75'
Высота перехода3500ft
Эшелон переходаQNH>=747mm:FL50; QNH<747=>720:FL60; QNH<720:FL70
Коды ответчика0701-0777, 5701-5727
Зона ОрВДСанкт-Петербург РПИ (ULLL)
Данные METARULLI 211000Z 30004MPS 260V330 CAVOK 23/11 Q1017 R88/090060 NOSIG
Проноз погоды (TAF)ULLI 210756Z 2109/2209 32003MPS CAVOK TEMPO 2109/2119 01003G08MPS BKN025 BECMG 2120/2121 12003MPS 4000 BR TEMPO 2121/2203 0500 FG VV003 BECMG 2203/2204 08003MPS CAVOK
NOTAMshow/hide NOTAM
AWOS   TABLE

Информация о ВПП

ВПП Длина ВПП (м.) Покрытие Курс ВПП Частота ILS
10L3397Цементобетон96110.5
28R3397Цементобетон276111.3
10R3780Цементобетон96111.9
28L3780Цементобетон276108.9

Диспетчерские позиции

Позывной Наименование органа УВД Частота
ULLI_GNDПулково-Руление121.7
ULLI_TWRПулково-Вышка118.1
ULLI_APPПетербург-Подход119.3
ULLI_R_APPПулково-Круг120.3
ULLI_DELПулково-Деливери121.9



Спутниковое изображение